Latest Coastal Weather Observations for Cocos Island

IDW60701

Issued at 9:45 pm WST Thursday 30 October 2014 (issued every 10 minutes, with the page automatically refreshed every 10 minutes)

About coastal observations | Map of coastal stations | Coastal observations for WA | Marine services | Other Formats
Station Details ID: 200284 Name: COCOS ISLAND AIRPORT Lat: -12.19 Lon: 96.83 Height: 3.0 m
Data from the previous 72 hours. | See also: Recent months at Cocos Island
Date/Time
WST
Temp

°C
Wind Pressure Rain
since 9am
mm
Weather Cloud Vis
km
Sea
Height
m
Swell
Dir
 
Speed
knots
Gust
knots
hPa Trend Height
m
Period
s
Dir
30/09:30pm 26.5 ESE 13 17 1013.3 - 0.0 - - 10 - - - -
30/09:00pm 26.6 ESE 12 17 1013.1 - 0.0 - Partly cloudy 10 - - - -
30/08:30pm 26.5 ESE 13 17 1012.9 - 0.0 - Partly cloudy 10 - - - -
30/08:00pm 26.6 ESE 12 16 1012.5 - 0.0 - Partly cloudy 10 - - - -
30/07:30pm 26.6 ESE 13 16 1012.3 - 0.0 - - 10 - - - -
30/07:00pm 26.9 ESE 12 19 1011.9 - 0.0 - Partly cloudy 10 - - - -
30/06:30pm 27.1 ESE 12 17 1011.5 - 0.0 - Partly cloudy 10 - - - -
30/06:00pm 27.8 ESE 13 17 1011.4 - 0.0 - Mostly clear 10 - - - -
30/05:30pm 27.8 ESE 13 18 1011.2 - 0.0 - Mostly clear 10 - - - -
30/05:00pm 28.2 ESE 13 18 1011.3 - 0.0 Fine Mostly clear 22 - - - -
30/04:30pm 28.6 ESE 14 19 1011.4 - 0.0 - Mostly clear 10 - - - -
30/04:00pm 28.4 ESE 14 19 1011.7 - 0.0 - Mostly clear 10 - - - -
30/03:30pm 28.5 ESE 14 21 1011.5 - 0.0 - Mostly clear 10 - - - -
30/03:00pm 28.2 E 16 20 1011.7 - 0.0 - Mostly clear 10 - - - -
30/02:30pm 28.3 ESE 15 19 1011.9 - 0.0 - Mostly clear 10 - - - -
30/02:00pm 28.6 ESE 13 20 1012.3 - 0.0 Fine Mostly clear 20 - - - -
30/01:30pm 28.6 E 14 19 1012.7 - 0.0 - Mostly clear 10 - - - -
30/01:00pm 27.4 ESE 14 19 1013.0 - 0.0 - Partly cloudy 10 - - - -
30/12:30pm 27.9 ESE 13 19 1013.4 - 0.0 - Mostly clear 10 - - - -
30/12:00pm 28.2 ESE 15 19 1013.7 - 0.0 - Mostly clear 10 - - - -
30/11:30am 27.8 ESE 14 19 1013.9 - 0.0 - Mostly clear 10 - - - -
30/11:00am 27.4 E 13 17 1014.1 - 0.8 Distant precip. Mostly cloudy 18 - - - -
30/10:30am 27.3 ESE 14 18 1014.0 - 0.8 - Mostly clear 10 - - - -
30/10:00am 27.4 E 13 18 1014.0 - 0.6 - Mostly clear 10 - - - -
30/09:30am 26.6 E 15 19 1014.0 - 0.6 - Mostly clear 10 - - - -
30/09:00am 26.4 E 13 16 1013.9 - 0.6 Showers Mostly clear 10 - - - -
30/08:30am 25.7 ESE 9 11 1013.6 - 0.6 - Mostly clear 10 - - - -
30/08:00am 25.6 E 9 12 1013.2 - 0.0 Showers Mostly cloudy 16 - - - -
30/07:30am 25.6 ESE 11 15 1012.7 - 0.0 - Mostly clear 10 - - - -
30/07:00am 25.6 ESE 15 19 1012.5 - 0.0 - Mostly clear 10 - - - -
30/06:30am 25.7 ESE 15 19 1012.1 - 0.0 - Partly cloudy 10 - - - -
30/06:00am 25.7 ESE 12 15 1012.0 - 0.0 - Partly cloudy 10 - - - -
30/05:30am 25.6 ESE 13 17 1011.9 - 0.0 - - 10 - - - -
30/05:00am 25.6 ESE 15 19 1011.7 - 0.0 - - 10 - - - -
30/04:30am 25.6 ESE 14 19 1011.6 - 0.0 - - 10 - - - -
30/04:00am 25.8 ESE 13 17 1011.6 - 0.0 - Partly cloudy 10 - - - -
30/03:30am 25.7 ESE 13 17 1011.7 - 0.0 - Partly cloudy 10 - - - -
30/03:00am 25.8 ESE 16 19 1011.9 - 0.0 - Partly cloudy 10 - - - -
30/02:30am 26.0 ESE 16 20 1012.3 - 0.0 - - 10 - - - -
30/02:00am 26.0 ESE 16 20 1012.6 - 0.0 - Mostly clear 10 - - - -
30/01:30am 26.1 ESE 15 20 1012.8 - 0.0 - Partly cloudy 10 - - - -
30/01:00am 26.2 SE 16 20 1013.1 - 0.0 - Partly cloudy 10 - - - -
30/12:30am 26.2 SE 15 19 1013.5 - 0.0 - Partly cloudy 10 - - - -
30/12:00am 26.2 SE 14 17 1013.8 - 0.0 - Partly cloudy 10 - - - -
 
Date/Time
WST
Temp

°C
Wind Pressure Rain
since 9am
mm
Weather Cloud Vis
km
Sea
Height
m
Swell
Dir
 
Speed
knots
Gust
knots
hPa Trend Height
m
Period
s
Dir
29/11:30pm 26.3 ESE 15 21 1013.9 - 0.0 - Partly cloudy 10 - - - -
29/11:00pm 26.3 ESE 15 20 1013.9 - 0.0 - Mostly clear 10 - - - -
29/10:30pm 26.4 ESE 17 22 1013.8 - 0.0 - Partly cloudy 10 - - - -
29/10:00pm 26.6 SE 18 22 1013.6 - 0.0 - Partly cloudy 10 - - - -
29/09:30pm 26.4 SE 16 20 1013.4 - 0.0 - Partly cloudy 10 - - - -
29/09:00pm 26.5 ESE 15 19 1013.3 - 0.0 - Partly cloudy 10 - - - -
29/08:30pm 26.4 ESE 15 19 1013.1 - 0.0 - Partly cloudy 10 - - - -
29/08:00pm 26.6 ESE 15 19 1013.1 - 0.0 - Partly cloudy 10 - - - -
29/07:30pm 26.5 ESE 13 19 1012.9 - 0.0 - - 10 - - - -
29/07:00pm 26.7 ESE 13 17 1012.5 - 0.0 - - 10 - - - -
29/06:30pm 27.1 ESE 15 19 1012.1 - 0.0 - Mostly clear 10 - - - -
29/06:00pm 27.4 ESE 16 21 1012.0 - 0.0 - Mostly clear 10 - - - -
29/05:30pm 27.5 ESE 17 21 1011.9 - 0.0 - Mostly clear 10 - - - -
29/05:00pm 28.0 SE 16 20 1012.0 - 0.0 Fine Mostly clear 15 - - - -
29/04:30pm 27.9 ESE 15 20 1012.1 - 0.0 - Mostly clear 10 - - - -
29/04:00pm 28.3 SE 15 21 1012.2 - 0.0 - Mostly clear 10 - - - -
29/03:30pm 28.3 ESE 15 20 1012.4 - 0.0 - Mostly clear 10 - - - -
29/03:00pm 28.9 SE 15 19 1012.7 - 0.0 - Mostly clear 10 - - - -
29/02:30pm 28.3 ESE 15 19 1013.0 - 0.0 - Mostly clear 10 - - - -
29/02:00pm 28.2 ESE 15 20 1013.6 - 0.0 Fine Mostly clear 15 - - - -
29/01:30pm 28.2 ESE 15 19 1014.0 - 0.0 - - 10 - - - -
29/01:00pm 28.1 ESE 16 19 1014.4 - 0.0 - - 10 - - - -
29/12:30pm 28.0 ESE 15 20 1014.7 - 0.0 - Partly cloudy 10 - - - -
29/12:00pm 27.8 ESE 14 19 1015.0 - 0.0 - Mostly clear 10 - - - -
29/11:30am 28.2 ESE 14 20 1015.2 - 0.0 - Mostly clear 10 - - - -
29/11:00am 28.0 ESE 15 19 1015.4 - 0.0 Haze Mostly clear 12 - - - -
29/10:30am 27.7 ESE 14 19 1015.4 - 0.0 - Mostly clear 10 - - - -
29/10:00am 27.7 ESE 12 17 1015.3 - 0.0 - Mostly clear 10 - - - -
29/09:30am 27.0 ESE 14 18 1015.1 - 0.0 - Mostly clear 10 - - - -
29/09:00am 26.8 ESE 14 18 1014.9 - 0.0 - Mostly clear 10 - - - -
29/08:30am 26.5 ESE 13 17 1014.8 - 0.0 - Mostly clear 10 - - - -
29/08:00am 26.0 ESE 14 17 1014.4 - 0.0 Haze Mostly clear 12 - - - -
29/07:30am 25.7 ESE 15 18 1013.9 - 0.0 - Mostly clear 10 - - - -
29/07:00am 25.7 ESE 15 18 1013.6 - 0.0 - Mostly clear 10 - - - -
29/06:30am 25.5 ESE 14 17 1013.2 - 0.0 - - 10 - - - -
29/06:00am 25.7 ESE 15 18 1013.0 - 0.0 - - 10 - - - -
29/05:30am 25.7 ESE 15 19 1012.8 - 0.0 - - 10 - - - -
29/05:00am 25.6 ESE 15 19 1012.6 - 0.0 - Mostly clear 10 - - - -
29/04:30am 25.7 ESE 13 17 1012.6 - 0.0 - Partly cloudy 10 - - - -
29/04:00am 25.6 ESE 13 19 1012.6 - 0.0 - - 10 - - - -
29/03:30am 25.9 ESE 14 18 1012.7 - 0.0 - Partly cloudy 10 - - - -
29/03:00am 25.9 ESE 13 19 1013.0 - 0.0 - Partly cloudy 10 - - - -
29/02:30am 25.9 E 11 16 1013.2 - 0.0 - Partly cloudy 10 - - - -
29/02:00am 26.0 E 12 16 1013.5 - 0.0 - Mostly clear 10 - - - -
29/01:30am 26.0 ESE 12 16 1013.6 - 0.0 - - 10 - - - -
29/01:00am 26.2 ESE 14 19 1013.9 - 0.0 - - 10 - - - -
29/12:30am 26.2 ESE 13 18 1014.2 - 0.0 - Partly cloudy 10 - - - -
29/12:00am 26.3 ESE 13 19 1014.3 - 0.0 - - 10 - - - -
 
Date/Time
WST
Temp

°C
Wind Pressure Rain
since 9am
mm
Weather Cloud Vis
km
Sea
Height
m
Swell
Dir
 
Speed
knots
Gust
knots
hPa Trend Height
m
Period
s
Dir
28/11:30pm 26.4 ESE 13 18 1014.4 - 0.0 - - 10 - - - -
28/11:00pm 26.4 ESE 14 18 1014.4 - 0.0 - - 10 - - - -
28/10:30pm 26.4 ESE 14 18 1014.3 - 0.0 - Partly cloudy 10 - - - -
28/10:00pm 26.4 ESE 13 17 1014.2 - 0.0 - - 10 - - - -
28/09:30pm 26.4 ESE 11 15 1014.3 - 0.0 - Partly cloudy 10 - - - -
28/09:00pm 26.5 ESE 12 16 1014.0 - 0.0 - Partly cloudy 10 - - - -
28/08:30pm 26.6 ESE 10 15 1013.8 - 0.0 - Partly cloudy 10 - - - -
28/08:00pm 26.6 ESE 10 14 1013.5 - 0.0 - Mostly clear 10 - - - -
28/07:30pm 26.6 ESE 11 15 1013.3 - 0.0 - Partly cloudy 10 - - - -
28/07:00pm 26.9 ESE 11 14 1012.8 - 0.0 - - 10 - - - -
28/06:30pm 27.3 ESE 12 17 1012.7 - 0.0 - Partly cloudy 10 - - - -
28/06:00pm 27.7 ESE 12 17 1012.2 - 0.0 - Mostly clear 10 - - - -
28/05:30pm 27.9 ESE 14 19 1012.1 - 0.0 - Mostly clear 10 - - - -
28/05:00pm 28.1 ESE 13 17 1012.2 - 0.0 Fine Mostly clear 15 - - - -
28/04:30pm 28.3 ESE 14 19 1012.3 - 0.0 - Mostly clear 10 - - - -
28/04:00pm 28.5 ESE 13 18 1012.5 - 0.0 - Mostly clear 10 - - - -
28/03:30pm 28.6 ESE 14 18 1012.6 - 0.0 - - 10 - - - -
28/03:00pm 28.2 ESE 13 17 1012.8 - 0.0 - Mostly clear 10 - - - -
28/02:30pm 28.8 ESE 13 18 1012.9 - 0.0 - Mostly clear 10 - - - -
28/02:00pm 28.4 ESE 14 19 1013.4 - 0.0 Haze Mostly clear 12 - - - -
28/01:30pm 28.5 ESE 14 19 1013.8 - 0.0 - Mostly clear 10 - - - -
28/01:00pm 28.6 ESE 13 18 1014.1 - 0.0 - Mostly clear 10 - - - -
28/12:30pm 27.6 ESE 15 19 1014.3 - 0.0 - Mostly clear 10 - - - -
28/12:00pm 28.1 ESE 13 17 1014.4 - 0.0 - Mostly clear 10 - - - -
28/11:30am 27.9 ESE 13 17 1014.4 - 0.0 - Mostly clear 10 - - - -
28/11:00am 27.8 ESE 14 18 1014.6 - 0.0 Haze Partly cloudy 12 - - - -
28/10:30am 27.7 ESE 13 18 1014.6 - - - Mostly clear 10 - - - -
28/10:00am 27.6 E 13 17 1014.5 - - - Mostly clear 10 - - - -
28/09:30am 27.0 ESE 13 17 1014.4 - - - Mostly clear 10 - - - -
28/09:00am 27.0 E 13 18 1014.1 - - - Mostly clear 10 - - - -
28/08:30am 26.7 ESE 12 16 1013.9 - - - Mostly clear 10 - - - -
28/08:00am 26.0 ESE 12 16 1013.6 - - Haze Partly cloudy 12 - - - -
28/07:30am 25.9 ESE 13 17 1013.3 - - - Partly cloudy 10 - - - -
28/07:00am 25.8 ESE 13 17 1013.0 - - - Mostly clear 10 - - - -
28/06:30am 25.7 ESE 12 15 1012.5 - - - Partly cloudy 10 - - - -
28/06:00am 25.8 ESE 12 15 1012.5 - - - - 10 - - - -
28/05:30am 25.7 ESE 11 15 1012.4 - - - Partly cloudy 10 - - - -
28/05:00am 25.9 ESE 11 14 1012.4 - - - Cloudy 10 - - - -
28/04:30am 25.9 ESE 11 15 1012.5 - - - Partly cloudy 10 - - - -
28/04:00am 25.9 ESE 10 13 1012.7 - - - Partly cloudy 10 - - - -
28/03:30am 25.9 ESE 11 14 1012.9 - - - Partly cloudy 10 - - - -
28/03:00am 26.0 ESE 10 12 1013.2 - - - Partly cloudy 10 - - - -
28/02:30am 26.1 ESE 10 12 1013.4 - - - Partly cloudy 10 - - - -
28/02:00am 26.1 ESE 11 14 1013.6 - - - Partly cloudy 10 - - - -
28/01:30am 26.2 ESE 12 14 1013.6 - - - Partly cloudy 10 - - - -
28/01:00am 26.2 ESE 10 13 1013.9 - - - Partly cloudy 10 - - - -
28/12:30am 26.3 ESE 10 13 1014.2 - - - - 10 - - - -
28/12:00am 26.3 ESE 11 14 1014.4 - - - - 10 - - - -
 
Date/Time
WST
Temp

°C
Wind Pressure Rain
since 9am
mm
Weather Cloud Vis
km
Sea
Height
m
Swell
Dir
 
Speed
knots
Gust
knots
hPa Trend Height
m
Period
s
Dir
27/11:30pm 26.4 ESE 11 14 1014.4 - - - - 10 - - - -

Other Formats:

Comma delimited format used in spreadsheet applications
http://www.bom.gov.au/fwo/IDW60701/IDW60701.96996.axf

JavaScript Object Notation format (JSON) in row-major order
http://www.bom.gov.au/fwo/IDW60701/IDW60701.96996.json